createdAt,value
2023-02-24T00:02:15.032Z,44.50
2023-02-24T00:04:42.143Z,47.83
2023-02-24T00:07:10.986Z,39.35
2023-02-24T00:09:40.570Z,42.95
2023-02-24T00:12:11.302Z,44.10
2023-02-24T00:14:40.853Z,48.65
2023-02-24T00:17:08.816Z,46.08
2023-02-24T00:19:37.051Z,40.78
2023-02-24T00:22:06.478Z,35.47
2023-02-24T00:24:33.938Z,45.05
2023-02-24T00:27:08.180Z,43.13
2023-02-24T00:29:37.583Z,38.38
2023-02-24T00:32:08.223Z,41.25
2023-02-24T00:34:36.720Z,41.85
2023-02-24T00:37:07.389Z,40.40
2023-02-24T00:39:35.780Z,39.00
2023-02-24T00:42:05.837Z,39.17
2023-02-24T00:44:35.412Z,37.08
2023-02-24T00:47:04.996Z,40.20
2023-02-24T00:49:32.765Z,35.92
2023-02-24T00:52:00.153Z,43.47
2023-02-24T00:54:28.442Z,43.72
2023-02-24T00:56:57.402Z,39.65
2023-02-24T00:59:24.530Z,39.67
2023-02-24T01:01:51.952Z,45.45
2023-02-24T01:04:20.378Z,46.13
2023-02-24T01:06:50.805Z,39.83
2023-02-24T01:09:20.685Z,37.10
2023-02-24T01:12:08.280Z,47.13
2023-02-24T01:14:36.276Z,41.70
2023-02-24T01:17:05.240Z,44.63
2023-02-24T01:19:33.745Z,41.53
2023-02-24T01:22:07.520Z,41.80
2023-02-24T01:24:38.285Z,38.45
2023-02-24T01:27:06.825Z,43.22
2023-02-24T01:29:39.305Z,44.33
2023-02-24T01:32:08.175Z,44.95
2023-02-24T01:34:35.107Z,37.92
2023-02-24T01:37:02.106Z,42.08
2023-02-24T01:39:29.322Z,38.30
2023-02-24T01:41:56.758Z,43.70
2023-02-24T01:44:25.238Z,45.78
2023-02-24T01:46:53.580Z,43.97
2023-02-24T01:49:24.005Z,50.25
2023-02-24T01:51:58.639Z,45.13
2023-02-24T01:54:32.611Z,40.25
2023-02-24T01:57:01.796Z,46.67
2023-02-24T01:59:31.866Z,53.40
2023-02-24T02:02:04.086Z,37.72
2023-02-24T02:04:43.061Z,45.42
2023-02-24T02:07:13.785Z,47.38
2023-02-24T02:09:43.813Z,41.40
2023-02-24T02:12:14.028Z,44.80
2023-02-24T02:14:44.649Z,47.15
2023-02-24T02:17:26.886Z,47.65
2023-02-24T02:20:23.629Z,40.30
2023-02-24T02:22:56.682Z,48.53
2023-02-24T02:25:55.433Z,43.97
2023-02-24T02:28:32.077Z,46.28
2023-02-24T02:31:10.343Z,47.60
2023-02-24T02:33:47.274Z,51.55
2023-02-24T02:36:31.571Z,54.85
2023-02-24T02:39:13.016Z,39.47
2023-02-24T02:41:56.005Z,51.30
2023-02-24T02:44:33.170Z,51.10
2023-02-24T02:47:09.011Z,42.40
2023-02-24T02:49:44.130Z,50.88
2023-02-24T02:52:18.262Z,53.22
2023-02-24T02:55:03.738Z,52.30
2023-02-24T02:57:32.203Z,47.28
2023-02-24T03:00:13.502Z,40.30
2023-02-24T03:02:45.370Z,46.35
2023-02-24T03:05:17.510Z,49.03
2023-02-24T03:07:49.677Z,40.08
2023-02-24T03:10:23.302Z,48.50
2023-02-24T03:12:54.179Z,48.78
2023-02-24T03:15:24.041Z,48.60
2023-02-24T03:17:58.399Z,51.05
2023-02-24T03:20:36.140Z,45.33
2023-02-24T03:23:07.683Z,44.40
2023-02-24T03:25:46.782Z,54.13
2023-02-24T03:28:29.169Z,63.33
2023-02-24T03:31:04.836Z,49.95
2023-02-24T03:33:50.548Z,54.03
2023-02-24T03:36:17.307Z,50.40
2023-02-24T03:38:44.194Z,61.40
2023-02-24T03:41:13.808Z,47.65
2023-02-24T03:43:47.673Z,57.33
2023-02-24T03:46:17.555Z,48.85
2023-02-24T03:48:51.267Z,52.05
2023-02-24T03:51:21.223Z,49.80
2023-02-24T03:53:57.197Z,52.88
2023-02-24T03:56:33.201Z,47.65
2023-02-24T03:59:15.964Z,51.35
2023-02-24T04:01:58.153Z,43.47
2023-02-24T04:04:40.013Z,62.95
2023-02-24T04:07:15.980Z,46.13
2023-02-24T04:10:05.408Z,42.55
2023-02-24T04:12:37.183Z,47.67
2023-02-24T04:15:29.988Z,50.10
2023-02-24T04:18:03.516Z,53.95
2023-02-24T04:20:33.697Z,45.65
2023-02-24T04:23:08.637Z,45.38
2023-02-24T04:25:37.379Z,55.40
2023-02-24T04:28:08.030Z,51.45
2023-02-24T04:30:39.633Z,42.63
2023-02-24T04:33:07.469Z,50.65
2023-02-24T04:35:34.500Z,42.17
2023-02-24T04:38:01.536Z,46.10
2023-02-24T04:40:28.338Z,41.55
2023-02-24T04:42:55.981Z,47.50
2023-02-24T04:45:28.718Z,55.90
2023-02-24T04:48:02.897Z,58.60
2023-02-24T04:50:35.589Z,42.40
2023-02-24T04:53:07.625Z,47.15
2023-02-24T04:55:40.291Z,46.63
2023-02-24T04:58:12.511Z,49.28
2023-02-24T05:00:42.127Z,48.20
2023-02-24T05:03:11.904Z,50.83
2023-02-24T05:05:38.949Z,48.83
2023-02-24T05:08:09.349Z,48.15
2023-02-24T05:10:47.984Z,57.42
2023-02-24T05:13:27.937Z,48.60
2023-02-24T05:15:59.956Z,53.75
2023-02-24T05:18:30.460Z,53.10
2023-02-24T05:21:16.406Z,48.90
2023-02-24T05:23:45.976Z,51.72
2023-02-24T05:26:17.053Z,51.05
2023-02-24T05:28:52.074Z,53.15
2023-02-24T05:31:26.904Z,46.50
2023-02-24T05:33:57.727Z,53.70
2023-02-24T05:36:26.599Z,46.45
2023-02-24T05:38:57.885Z,50.10
2023-02-24T05:41:32.890Z,50.50
2023-02-24T05:44:02.971Z,44.15
2023-02-24T05:46:32.739Z,46.85
2023-02-24T05:49:03.033Z,43.75
2023-02-24T05:51:35.543Z,44.97
2023-02-24T05:54:11.057Z,42.17
2023-02-24T05:56:40.256Z,38.92
2023-02-24T05:59:11.882Z,52.05
2023-02-24T06:01:46.181Z,57.25
2023-02-24T06:04:22.010Z,46.47
2023-02-24T06:06:52.543Z,42.95
2023-02-24T06:09:23.225Z,43.83
2023-02-24T06:11:50.541Z,50.45
2023-02-24T06:14:17.940Z,44.00
2023-02-24T06:16:45.107Z,48.33
2023-02-24T06:19:13.395Z,46.92
2023-02-24T06:21:42.067Z,42.17
2023-02-24T06:24:14.633Z,35.50
2023-02-24T06:26:45.950Z,28.45
2023-02-24T06:29:15.049Z,26.40
2023-02-24T06:31:43.105Z,27.50
2023-02-24T06:34:18.838Z,31.50
2023-02-24T06:36:49.176Z,27.65
2023-02-24T06:39:17.397Z,32.83
2023-02-24T06:41:44.368Z,33.83
2023-02-24T06:44:12.093Z,37.47
2023-02-24T06:46:38.858Z,29.05
2023-02-24T06:49:05.858Z,30.42
2023-02-24T06:51:33.795Z,37.17
2023-02-24T06:54:00.567Z,34.92
2023-02-24T06:56:28.152Z,48.72
2023-02-24T06:58:56.426Z,36.28
2023-02-24T07:01:26.108Z,33.38
2023-02-24T07:04:07.350Z,35.03
2023-02-24T07:06:38.382Z,38.00
2023-02-24T07:09:13.289Z,34.17
2023-02-24T07:11:52.618Z,43.42
2023-02-24T07:14:28.140Z,40.92
2023-02-24T07:16:57.156Z,38.63
2023-02-24T07:19:32.492Z,38.15
2023-02-24T07:22:02.113Z,36.40
2023-02-24T07:24:36.569Z,36.00
2023-02-24T07:27:11.484Z,38.15
2023-02-24T07:29:38.959Z,33.05
2023-02-24T07:32:08.952Z,36.60
2023-02-24T07:34:40.243Z,28.08
2023-02-24T07:37:08.702Z,28.67
2023-02-24T07:39:37.250Z,42.42
2023-02-24T07:42:07.336Z,27.35
2023-02-24T07:44:35.177Z,43.95
2023-02-24T07:47:12.629Z,31.40
2023-02-24T07:49:41.041Z,36.55
2023-02-24T07:52:08.550Z,30.35
2023-02-24T07:54:36.003Z,29.98
2023-02-24T07:57:03.164Z,34.30
2023-02-24T07:59:32.761Z,30.27
2023-02-24T08:02:04.676Z,35.60
2023-02-24T08:04:33.168Z,30.45
2023-02-24T08:07:03.491Z,30.17
2023-02-24T08:10:06.989Z,33.22
2023-02-24T08:12:35.539Z,31.92
2023-02-24T08:15:17.301Z,32.20
2023-02-24T08:17:47.816Z,40.05
2023-02-24T08:20:14.791Z,33.58
2023-02-24T08:22:46.839Z,36.85
2023-02-24T08:25:19.059Z,35.83
2023-02-24T08:28:07.372Z,31.88
2023-02-24T08:30:45.111Z,27.23
2023-02-24T08:33:19.277Z,30.70
2023-02-24T08:35:50.186Z,25.83
2023-02-24T08:38:20.469Z,29.10
2023-02-24T08:40:51.881Z,29.75
2023-02-24T08:43:29.330Z,29.00
2023-02-24T08:45:57.897Z,25.05
2023-02-24T08:48:32.266Z,31.85
2023-02-24T08:51:04.665Z,26.77
2023-02-24T08:53:31.649Z,25.60
2023-02-24T08:56:12.408Z,20.77
2023-02-24T08:58:48.965Z,20.45
2023-02-24T09:01:26.001Z,18.35
2023-02-24T09:04:04.604Z,19.80
2023-02-24T09:06:47.717Z,17.45
2023-02-24T09:09:17.803Z,15.68
2023-02-24T09:11:56.173Z,18.42
2023-02-24T09:14:30.815Z,20.02
2023-02-24T09:17:02.164Z,15.82
2023-02-24T09:19:41.182Z,22.83
2023-02-24T09:22:31.289Z,20.73
2023-02-24T09:25:19.259Z,19.23
2023-02-24T09:27:56.209Z,16.85
2023-02-24T09:30:39.013Z,20.33
2023-02-24T09:33:18.566Z,21.48
2023-02-24T09:36:20.102Z,13.50
2023-02-24T09:39:01.742Z,16.50
2023-02-24T09:41:57.227Z,15.45
2023-02-24T09:44:37.831Z,16.20
2023-02-24T09:47:39.849Z,14.82
2023-02-24T09:50:26.275Z,13.88
2023-02-24T09:53:17.079Z,17.00
2023-02-24T09:56:01.149Z,14.88
2023-02-24T09:58:43.344Z,14.77
2023-02-24T10:01:47.974Z,13.85
2023-02-24T10:04:34.994Z,13.80
2023-02-24T10:07:11.062Z,12.68
2023-02-24T10:09:46.578Z,15.40
2023-02-24T10:12:17.348Z,15.00
2023-02-24T10:15:18.088Z,15.15
2023-02-24T10:17:55.729Z,18.35
2023-02-24T10:20:39.448Z,14.45
2023-02-24T10:23:29.693Z,16.00
2023-02-24T10:26:07.717Z,13.93
2023-02-24T10:28:55.643Z,16.73
2023-02-24T10:31:29.741Z,11.07
2023-02-24T10:34:01.865Z,10.30
2023-02-24T10:36:36.706Z,7.28
2023-02-24T10:39:08.565Z,9.32
2023-02-24T10:41:48.344Z,8.00
2023-02-24T10:44:26.905Z,6.45
2023-02-24T10:47:11.412Z,8.88
2023-02-24T10:49:57.140Z,11.23
2023-02-24T10:52:51.223Z,5.90
2023-02-24T10:55:29.131Z,7.15
2023-02-24T10:58:16.071Z,5.85
2023-02-24T11:01:12.881Z,6.85
2023-02-24T11:03:48.202Z,4.25
2023-02-24T11:06:41.264Z,6.43
2023-02-24T11:09:32.454Z,6.80
2023-02-24T11:12:33.358Z,7.32
2023-02-24T11:15:23.598Z,9.82
2023-02-24T11:18:15.175Z,6.38
2023-02-24T11:20:58.091Z,5.00
2023-02-24T11:23:56.067Z,6.18
2023-02-24T11:26:42.002Z,5.82
2023-02-24T11:29:22.133Z,8.10
2023-02-24T11:32:15.497Z,5.85
2023-02-24T11:34:58.931Z,5.55
2023-02-24T11:38:02.168Z,7.13
2023-02-24T11:40:46.595Z,8.75
2023-02-24T11:43:23.106Z,6.55
2023-02-24T11:46:04.292Z,6.55
2023-02-24T11:48:38.039Z,7.18
2023-02-24T11:51:18.369Z,8.07
2023-02-24T11:54:04.194Z,8.27
2023-02-24T11:56:53.442Z,6.28
2023-02-24T11:59:45.706Z,8.68
2023-02-24T12:02:50.200Z,8.35
2023-02-24T12:05:24.686Z,6.72
2023-02-24T12:07:58.778Z,8.00
2023-02-24T12:10:35.845Z,7.30
2023-02-24T12:13:11.839Z,6.22
2023-02-24T12:15:50.767Z,9.25
2023-02-24T12:18:30.340Z,7.80
2023-02-24T12:21:02.862Z,6.03
2023-02-24T12:23:41.090Z,9.50
2023-02-24T12:26:23.209Z,10.10
2023-02-24T12:29:09.568Z,6.80
2023-02-24T12:31:53.450Z,7.13
2023-02-24T12:34:33.769Z,4.30
2023-02-24T12:37:07.817Z,4.75
2023-02-24T12:40:11.751Z,5.00
2023-02-24T12:43:30.263Z,6.70
2023-02-24T12:46:15.786Z,4.15
2023-02-24T12:48:45.471Z,3.78
2023-02-24T12:51:55.697Z,3.40
2023-02-24T12:54:30.033Z,9.13
2023-02-24T12:57:23.654Z,6.40
2023-02-24T12:59:51.904Z,3.00
2023-02-24T13:02:54.048Z,3.83
2023-02-24T13:05:33.574Z,4.32
2023-02-24T13:08:23.501Z,5.25
2023-02-24T13:11:25.326Z,4.57
2023-02-24T13:14:01.278Z,3.90
2023-02-24T13:16:38.453Z,4.55
2023-02-24T13:19:28.757Z,8.85
2023-02-24T13:22:14.007Z,2.78
2023-02-24T13:25:02.953Z,6.28
2023-02-24T13:27:41.225Z,6.50
2023-02-24T13:30:20.376Z,4.20
2023-02-24T13:32:58.938Z,4.28
2023-02-24T13:35:25.961Z,3.55
2023-02-24T13:37:53.690Z,4.20
2023-02-24T13:40:23.517Z,4.15
2023-02-24T13:42:58.144Z,3.30
2023-02-24T13:45:26.036Z,8.18
2023-02-24T13:48:11.707Z,5.57
2023-02-24T13:51:00.287Z,3.38
2023-02-24T13:53:50.729Z,5.35
2023-02-24T13:56:54.374Z,3.45
2023-02-24T13:59:47.435Z,5.28
2023-02-24T14:02:18.061Z,3.53
2023-02-24T14:04:50.350Z,4.38
2023-02-24T14:07:33.000Z,5.85
2023-02-24T14:10:02.999Z,4.60
2023-02-24T14:12:34.085Z,4.25
2023-02-24T14:15:03.184Z,8.90
2023-02-24T14:17:32.984Z,3.70
2023-02-24T14:20:18.629Z,6.35
2023-02-24T14:22:50.827Z,4.30
2023-02-24T14:25:18.226Z,5.57
2023-02-24T14:27:48.860Z,6.50
2023-02-24T14:30:26.656Z,5.80
2023-02-24T14:32:54.113Z,3.83
2023-02-24T14:35:27.711Z,7.40
2023-02-24T14:37:54.532Z,5.00
2023-02-24T14:40:26.426Z,3.88
2023-02-24T14:42:57.178Z,7.03
2023-02-24T14:45:28.373Z,6.10
2023-02-24T14:47:56.485Z,6.40
2023-02-24T14:50:31.659Z,14.13
2023-02-24T14:53:10.603Z,7.03
2023-02-24T14:55:41.205Z,7.50
2023-02-24T14:58:29.550Z,5.95
2023-02-24T15:01:37.626Z,7.95
2023-02-24T15:04:20.395Z,4.20
2023-02-24T15:06:47.549Z,4.75
2023-02-24T15:09:22.527Z,6.45
2023-02-24T15:11:53.302Z,5.97
2023-02-24T15:14:32.499Z,6.90
2023-02-24T15:17:03.327Z,4.40
2023-02-24T15:19:44.224Z,10.88
2023-02-24T15:22:47.882Z,5.20
2023-02-24T15:25:37.113Z,7.85
2023-02-24T15:28:25.911Z,5.10
2023-02-24T15:30:59.486Z,5.47
2023-02-24T15:33:32.056Z,7.55
2023-02-24T15:36:00.260Z,6.22
2023-02-24T15:38:33.459Z,5.45
2023-02-24T15:41:03.306Z,7.15
2023-02-24T15:43:53.281Z,5.10
2023-02-24T15:46:31.869Z,6.10
2023-02-24T15:49:05.551Z,5.93
2023-02-24T15:51:41.481Z,5.88
2023-02-24T15:54:13.397Z,8.63
2023-02-24T15:56:41.435Z,8.90
2023-02-24T15:59:13.907Z,7.88
2023-02-24T16:01:44.995Z,7.68
2023-02-24T16:04:14.926Z,9.38
2023-02-24T16:06:54.019Z,6.80
2023-02-24T16:09:32.430Z,8.95
2023-02-24T16:12:00.103Z,12.77
2023-02-24T16:14:27.359Z,14.05
2023-02-24T16:16:55.213Z,8.65
2023-02-24T16:19:22.072Z,11.77
2023-02-24T16:21:49.964Z,14.02
2023-02-24T16:24:21.667Z,10.30
2023-02-24T16:26:48.801Z,11.77
2023-02-24T16:29:17.235Z,11.77
2023-02-24T16:31:44.179Z,10.45
2023-02-24T16:34:16.185Z,7.93
2023-02-24T16:36:43.376Z,8.18
2023-02-24T16:39:14.353Z,5.93
2023-02-24T16:41:41.560Z,6.93
2023-02-24T16:44:09.405Z,8.77
2023-02-24T16:46:40.103Z,6.93
2023-02-24T16:49:10.102Z,5.63
2023-02-24T16:51:39.110Z,5.82
2023-02-24T16:54:06.803Z,6.68
2023-02-24T16:56:33.601Z,6.90
2023-02-24T16:59:00.359Z,5.22
2023-02-24T17:01:27.170Z,7.30
2023-02-24T17:03:54.388Z,6.32
2023-02-24T17:06:24.098Z,8.00
2023-02-24T17:08:51.171Z,8.20
2023-02-24T17:11:20.789Z,8.95
2023-02-24T17:13:47.649Z,7.57
2023-02-24T17:16:14.844Z,8.80
2023-02-24T17:18:41.850Z,10.30
2023-02-24T17:21:13.071Z,12.90
2023-02-24T17:23:40.875Z,9.40
2023-02-24T17:26:10.667Z,8.88
2023-02-24T17:28:38.438Z,11.32
2023-02-24T17:31:08.046Z,11.73
2023-02-24T17:33:36.419Z,10.60
2023-02-24T17:36:04.491Z,10.32
2023-02-24T17:38:32.791Z,15.20
2023-02-24T17:41:05.372Z,12.40
2023-02-24T17:43:34.754Z,13.15
2023-02-24T17:46:05.089Z,14.52
2023-02-24T17:48:35.919Z,19.50
2023-02-24T17:51:03.235Z,16.42
2023-02-24T17:53:33.862Z,16.92
2023-02-24T17:56:07.548Z,16.13
2023-02-24T17:58:35.172Z,19.30
2023-02-24T18:01:02.625Z,13.25
2023-02-24T18:03:30.743Z,17.70
2023-02-24T18:06:06.795Z,18.50
2023-02-24T18:08:34.931Z,19.50
2023-02-24T18:11:04.191Z,13.82
2023-02-24T18:13:34.134Z,17.10
2023-02-24T18:16:05.686Z,16.58
2023-02-24T18:18:32.905Z,18.20
2023-02-24T18:21:05.311Z,14.93
2023-02-24T18:23:33.414Z,14.52
2023-02-24T18:26:04.520Z,22.20
2023-02-24T18:28:33.309Z,17.00
2023-02-24T18:31:02.083Z,22.33
2023-02-24T18:33:30.182Z,24.00
2023-02-24T18:36:02.596Z,15.50
2023-02-24T18:38:37.559Z,16.50
2023-02-24T18:41:14.117Z,16.67
2023-02-24T18:43:42.386Z,19.35
2023-02-24T18:46:13.329Z,23.10
2023-02-24T18:48:45.218Z,20.38
2023-02-24T18:51:21.956Z,23.13
2023-02-24T18:53:52.789Z,18.92
2023-02-24T18:56:23.597Z,25.15
2023-02-24T18:58:52.603Z,18.70
2023-02-24T19:01:33.411Z,21.25
2023-02-24T19:04:00.933Z,22.83
2023-02-24T19:06:31.175Z,24.70
2023-02-24T19:09:06.474Z,33.55
2023-02-24T19:11:34.338Z,16.75
2023-02-24T19:14:04.101Z,17.98
2023-02-24T19:16:31.513Z,15.10
2023-02-24T19:19:00.374Z,14.95
2023-02-24T19:21:29.761Z,11.30
2023-02-24T19:23:59.220Z,10.88
2023-02-24T19:26:27.796Z,13.68
2023-02-24T19:28:56.821Z,12.77
2023-02-24T19:31:28.515Z,12.20
2023-02-24T19:34:00.419Z,12.13
2023-02-24T19:36:35.733Z,10.60
2023-02-24T19:39:03.934Z,10.80
2023-02-24T19:41:53.849Z,9.25
2023-02-24T19:44:21.208Z,10.98
2023-02-24T19:46:49.532Z,13.05
2023-02-24T19:49:22.310Z,13.63
2023-02-24T19:52:14.688Z,8.88
2023-02-24T19:54:57.922Z,11.93
2023-02-24T19:57:27.329Z,12.52
2023-02-24T19:59:54.407Z,8.25
2023-02-24T20:02:23.611Z,10.23
2023-02-24T20:04:50.503Z,10.50
2023-02-24T20:07:17.369Z,9.32
2023-02-24T20:09:44.361Z,10.77
2023-02-24T20:12:11.426Z,14.82
2023-02-24T20:14:39.333Z,13.32
2023-02-24T20:17:06.643Z,9.48
2023-02-24T20:19:34.522Z,10.15
2023-02-24T20:22:01.604Z,17.15
2023-02-24T20:24:28.436Z,13.02
2023-02-24T20:26:55.243Z,11.60
2023-02-24T20:29:22.413Z,11.15
2023-02-24T20:31:50.402Z,11.68
2023-02-24T20:34:19.688Z,12.73
2023-02-24T20:36:48.648Z,8.07
2023-02-24T20:39:15.597Z,13.43
2023-02-24T20:41:43.282Z,10.43
2023-02-24T20:44:11.231Z,12.05
2023-02-24T20:46:50.836Z,20.80
2023-02-24T20:49:18.254Z,13.98
2023-02-24T20:51:46.513Z,17.80
2023-02-24T20:54:13.884Z,13.48
2023-02-24T20:56:42.586Z,13.77
2023-02-24T20:59:20.073Z,14.88
2023-02-24T21:01:48.285Z,12.35
2023-02-24T21:04:18.506Z,12.10
2023-02-24T21:06:47.927Z,12.65
2023-02-24T21:09:16.168Z,11.13
2023-02-24T21:11:43.316Z,15.18
2023-02-24T21:14:15.064Z,13.30
2023-02-24T21:16:43.871Z,16.52
2023-02-24T21:19:13.224Z,25.05
2023-02-24T21:21:41.806Z,13.15
2023-02-24T21:24:10.241Z,15.65
2023-02-24T21:26:40.116Z,15.45
2023-02-24T21:29:07.159Z,17.48
2023-02-24T21:31:34.192Z,16.23
2023-02-24T21:34:02.873Z,14.68
2023-02-24T21:36:32.289Z,15.15
2023-02-24T21:38:59.746Z,11.90
2023-02-24T21:41:26.658Z,15.35
2023-02-24T21:44:00.604Z,14.57
2023-02-24T21:46:28.883Z,12.13
2023-02-24T21:48:57.579Z,14.90
2023-02-24T21:51:26.640Z,13.35
2023-02-24T21:53:57.228Z,14.02
2023-02-24T21:56:26.594Z,9.75
2023-02-24T21:59:05.247Z,12.38
2023-02-24T22:01:43.131Z,10.52
2023-02-24T22:04:13.315Z,13.25
2023-02-24T22:06:43.153Z,15.27
2023-02-24T22:09:11.791Z,11.63
2023-02-24T22:11:43.775Z,11.35
2023-02-24T22:14:15.182Z,12.02
2023-02-24T22:16:43.114Z,16.50
2023-02-24T22:19:12.266Z,10.43
2023-02-24T22:21:42.112Z,10.32
2023-02-24T22:24:13.074Z,12.02
2023-02-24T22:26:40.411Z,9.85
2023-02-24T22:29:08.000Z,12.05
2023-02-24T22:31:36.671Z,10.55
2023-02-24T22:34:05.064Z,11.25
2023-02-24T22:36:39.737Z,11.85
2023-02-24T22:39:07.728Z,9.68
2023-02-24T22:41:36.109Z,10.20
2023-02-24T22:44:05.885Z,18.92
2023-02-24T22:46:36.046Z,8.63
2023-02-24T22:49:05.019Z,8.50
2023-02-24T22:51:32.002Z,10.35
2023-02-24T22:53:58.753Z,9.98
2023-02-24T22:56:36.304Z,6.85
2023-02-24T22:59:03.495Z,10.23
2023-02-24T23:01:32.866Z,7.00
2023-02-24T23:04:01.732Z,10.13
2023-02-24T23:06:29.552Z,6.22
2023-02-24T23:09:00.412Z,7.80
2023-02-24T23:11:30.534Z,5.45
2023-02-24T23:14:00.830Z,5.85
2023-02-24T23:16:31.968Z,8.27
2023-02-24T23:19:03.276Z,5.18
2023-02-24T23:21:39.696Z,7.65
2023-02-24T23:24:08.037Z,4.88
2023-02-24T23:26:38.813Z,5.35
2023-02-24T23:29:06.423Z,5.85
2023-02-24T23:31:33.700Z,4.80
2023-02-24T23:34:02.104Z,8.80
2023-02-24T23:36:29.905Z,7.28
2023-02-24T23:38:57.324Z,6.05
2023-02-24T23:41:24.063Z,5.95
2023-02-24T23:43:51.267Z,8.05
2023-02-24T23:46:18.166Z,6.85
2023-02-24T23:48:46.274Z,5.45
2023-02-24T23:51:14.075Z,7.10
2023-02-24T23:53:43.381Z,6.30
2023-02-24T23:56:22.287Z,5.45
2023-02-24T23:58:59.071Z,3.80
